Twr-7 — TWR-7 — position and weather

sailwx.info

Track history (hours):
 
Tides and Currents Weather Stations Pressure Air Temp Water Temp Dewpoint Dewpoint Depression Visibility Wind Speed Wind Dir Waves Ship Positions

Twr-7

Last reported at 2014-Jul-31 21:31 UTC. Time now 2014-Aug-29 05:36 UTC.
Position N 47°46' W 122°44'.
Warning: this ship's position is 28 days out of date.

; draft 1.5 m.

Type: Military. MMSI: 369970258.

Date/timePositionNaut miles runAvg speedWind from/ knotsBaromVisibWave heightAir tempDewpointWater temp
2014-Jul-31 21:31N 47°46' W 122°44'4314.6
2014-Jul-31 18:33N 48°26' W 123°07'2319.7
2014-Jul-31 17:24N 48°47' W 123°20'1618.3
2014-Jul-31 16:32N 48°60' W 123°36'1515.4
2014-Jul-31 15:33N 49°10' W 123°53'1212.5
2014-Jul-31 14:33N 49°16' W 124°09'4 0.3
2014-Jul-30 22:13N 49°17' W 124°03'4 6.7
2014-Jul-30 21:34N 49°22' W 124°03'4 3.8
2014-Jul-30 20:33N 49°21' W 123°57'1 0.9
2014-Jul-30 19:33N 49°22' W 123°58'1 1.2
2014-Jul-30 18:33N 49°22' W 123°56'1 0.5
2014-Jul-30 17:33N 49°22' W 123°57'3 3.3
2014-Jul-30 16:33N 49°20' W 123°53'4 3.7
2014-Jul-30 15:33N 49°19' W 123°58'8 7.7
2014-Jul-30 14:33N 49°16' W 124°09'1 0.0
2014-Jul-30 01:19N 49°16' W 124°08'4 5.2
2014-Jul-30 00:33N 49°19' W 124°04'4 4.2
2014-Jul-29 23:33N 49°22' W 124°00'1 0.7
2014-Jul-29 22:33N 49°22' W 123°59'0 0.3
2014-Jul-29 21:33N 49°22' W 123°60'0 0.2
2014-Jul-29 20:33N 49°21' W 124°00'0 0.3
2014-Jul-29 19:33N 49°21' W 124°00'2 2.3
2014-Jul-29 18:33N 49°22' W 123°57'2 1.9
2014-Jul-29 17:33N 49°21' W 123°60'4 3.9
2014-Jul-29 16:33N 49°18' W 123°55'9 9.2
2014-Jul-29 15:32N 49°16' W 124°09'0 0.0
2014-Jul-29 14:33N 49°16' W 124°09'0 0.0
2014-Jul-29 13:33N 49°16' W 124°09'0 0.0
2014-Jul-29 12:33N 49°16' W 124°09'0 0.0
2014-Jul-29 11:33N 49°16' W 124°09'0 0.0
2014-Jul-29 10:33N 49°16' W 124°09'0 0.0
2014-Jul-29 09:33N 49°16' W 124°09'0 0.0
2014-Jul-29 08:33N 49°16' W 124°09'0 0.0
2014-Jul-29 07:33N 49°16' W 124°09'0 0.0
2014-Jul-29 06:33N 49°16' W 124°09'0 0.0
2014-Jul-29 05:33N 49°16' W 124°09'0 0.0
2014-Jul-29 04:34N 49°16' W 124°09'0 0.0
2014-Jul-29 03:33N 49°16' W 124°09'0 0.0
2014-Jul-29 02:33N 49°16' W 124°09'0 0.0
2014-Jul-29 01:33N 49°16' W 124°09'0 0.0
2014-Jul-29 00:33N 49°16' W 124°09'0 0.0
2014-Jul-28 23:33N 49°16' W 124°09'0 0.0
2014-Jul-28 22:33N 49°16' W 124°09'0 0.0
2014-Jul-28 21:34N 49°16' W 124°09'0 0.0
2014-Jul-28 20:33N 49°16' W 124°09'  
Track history (hours):
 
Tides and Currents Weather Stations Pressure Air Temp Water Temp Dewpoint Dewpoint Depression Visibility Wind Speed Wind Dir Waves Ship Positions

Twr-7

Last reported at 2014-Jul-31 21:31 UTC. Time now 2014-Aug-29 05:36 UTC.
Position N 47°46' W 122°44'.
Warning: this ship's position is 28 days out of date.

; draft 1.5 m.

Type: Military. MMSI: 369970258.

Date/timePositionNaut miles runAvg speedWind from/ knotsBaromVisibWave heightAir tempDewpointWater temp
2014-Jul-31 21:31N 47°46' W 122°44'4314.6
2014-Jul-31 18:33N 48°26' W 123°07'2319.7
2014-Jul-31 17:24N 48°47' W 123°20'1618.3
2014-Jul-31 16:32N 48°60' W 123°36'1515.4
2014-Jul-31 15:33N 49°10' W 123°53'1212.5
2014-Jul-31 14:33N 49°16' W 124°09'4 0.3
2014-Jul-30 22:13N 49°17' W 124°03'4 6.7
2014-Jul-30 21:34N 49°22' W 124°03'4 3.8
2014-Jul-30 20:33N 49°21' W 123°57'1 0.9
2014-Jul-30 19:33N 49°22' W 123°58'1 1.2
2014-Jul-30 18:33N 49°22' W 123°56'1 0.5
2014-Jul-30 17:33N 49°22' W 123°57'3 3.3
2014-Jul-30 16:33N 49°20' W 123°53'4 3.7
2014-Jul-30 15:33N 49°19' W 123°58'8 7.7
2014-Jul-30 14:33N 49°16' W 124°09'1 0.0
2014-Jul-30 01:19N 49°16' W 124°08'4 5.2
2014-Jul-30 00:33N 49°19' W 124°04'4 4.2
2014-Jul-29 23:33N 49°22' W 124°00'1 0.7
2014-Jul-29 22:33N 49°22' W 123°59'0 0.3
2014-Jul-29 21:33N 49°22' W 123°60'0 0.2
2014-Jul-29 20:33N 49°21' W 124°00'0 0.3
2014-Jul-29 19:33N 49°21' W 124°00'2 2.3
2014-Jul-29 18:33N 49°22' W 123°57'2 1.9
2014-Jul-29 17:33N 49°21' W 123°60'4 3.9
2014-Jul-29 16:33N 49°18' W 123°55'9 9.2
2014-Jul-29 15:32N 49°16' W 124°09'0 0.0
2014-Jul-29 14:33N 49°16' W 124°09'0 0.0
2014-Jul-29 13:33N 49°16' W 124°09'0 0.0
2014-Jul-29 12:33N 49°16' W 124°09'0 0.0
2014-Jul-29 11:33N 49°16' W 124°09'0 0.0
2014-Jul-29 10:33N 49°16' W 124°09'0 0.0
2014-Jul-29 09:33N 49°16' W 124°09'0 0.0
2014-Jul-29 08:33N 49°16' W 124°09'0 0.0
2014-Jul-29 07:33N 49°16' W 124°09'0 0.0
2014-Jul-29 06:33N 49°16' W 124°09'0 0.0
2014-Jul-29 05:33N 49°16' W 124°09'0 0.0
2014-Jul-29 04:34N 49°16' W 124°09'0 0.0
2014-Jul-29 03:33N 49°16' W 124°09'0 0.0
2014-Jul-29 02:33N 49°16' W 124°09'0 0.0
2014-Jul-29 01:33N 49°16' W 124°09'0 0.0
2014-Jul-29 00:33N 49°16' W 124°09'0 0.0
2014-Jul-28 23:33N 49°16' W 124°09'0 0.0
2014-Jul-28 22:33N 49°16' W 124°09'0 0.0
2014-Jul-28 21:34N 49°16' W 124°09'0 0.0
2014-Jul-28 20:33N 49°16' W 124°09'  

Dump ship's entire track history